Time;durP1;ratioP1;P1;durP2;ratioP2;P2;SDS_P1;SDS_P2;PMS_P1;PMS_P2;Temp;Humidity;BMP_temperature;BMP_pressure;BME280_temperature;BME280_humidity;BME280_pressure;Samples;Min_cycle;Max_cycle;Signal;HPM_P1;HPM_P2
2023/12/19 00:01:09;;;;;;;68.32;25.55;;;6.10;99.90;;;;;;5090627;28;20058;-64
2023/12/19 00:03:35;;;;;;;68.18;22.02;;;6.10;99.90;;;;;;5104689;28;20493;-65
2023/12/19 00:06:00;;;;;;;53.83;23.15;;;6.10;99.90;;;;;;5091166;28;20115;-64
2023/12/19 00:08:26;;;;;;;70.90;23.38;;;6.10;99.90;;;;;;5102362;28;20328;-64
2023/12/19 00:10:52;;;;;;;51.25;21.38;;;6.10;99.90;;;;;;5094569;28;20039;-64
2023/12/19 00:13:17;;;;;;;69.47;24.75;;;6.10;99.90;;;;;;5101640;28;20028;-63
2023/12/19 00:15:43;;;;;;;64.13;23.90;;;6.10;99.90;;;;;;5103920;28;20034;-63
2023/12/19 00:18:09;;;;;;;51.38;20.08;;;6.10;99.90;;;;;;5099858;28;20332;-64
2023/12/19 00:20:35;;;;;;;47.20;19.02;;;6.10;99.90;;;;;;5109365;28;20042;-63
2023/12/19 00:23:00;;;;;;;42.08;17.42;;;6.10;99.90;;;;;;5111208;28;20039;-64
2023/12/19 00:25:26;;;;;;;47.72;19.75;;;6.10;99.90;;;;;;5106756;28;20085;-64
2023/12/19 00:27:52;;;;;;;49.30;18.90;;;6.10;99.90;;;;;;5097771;28;20075;-64
2023/12/19 00:30:18;;;;;;;49.72;19.38;;;6.10;99.90;;;;;;5107605;28;20039;-64
2023/12/19 00:32:44;;;;;;;35.13;14.85;;;6.10;99.90;;;;;;5112749;28;20389;-63
2023/12/19 00:35:11;;;;;;;41.15;18.48;;;6.10;99.90;;;;;;5106685;28;20050;-64
2023/12/19 00:37:40;;;;;;;37.22;17.30;;;6.10;99.90;;;;;;5098594;28;20485;-64
2023/12/19 00:40:06;;;;;;;46.08;18.45;;;6.00;99.90;;;;;;5093902;28;20039;-63
2023/12/19 00:42:32;;;;;;;46.95;17.55;;;6.00;99.90;;;;;;5095038;28;20531;-64
2023/12/19 00:44:57;;;;;;;44.63;18.70;;;6.00;99.90;;;;;;5094066;28;20039;-64
2023/12/19 00:47:23;;;;;;;37.30;18.20;;;6.00;99.90;;;;;;5081269;28;20040;-64
2023/12/19 00:49:49;;;;;;;53.15;20.17;;;6.00;99.90;;;;;;5094268;28;20043;-64
2023/12/19 00:52:15;;;;;;;37.90;15.20;;;6.00;99.90;;;;;;5098575;28;20041;-64
2023/12/19 00:54:41;;;;;;;38.20;16.60;;;6.00;99.90;;;;;;5093613;28;20546;-65
2023/12/19 00:57:08;;;;;;;47.47;17.73;;;5.90;99.90;;;;;;5105288;28;20036;-64
2023/12/19 00:59:33;;;;;;;47.60;19.08;;;6.00;99.90;;;;;;5103031;28;20043;-64
2023/12/19 01:01:59;;;;;;;41.70;18.77;;;5.90;99.90;;;;;;5109016;28;20047;-64
2023/12/19 01:04:25;;;;;;;42.28;18.20;;;5.90;99.90;;;;;;5107579;28;20540;-64
2023/12/19 01:06:51;;;;;;;49.35;19.63;;;6.00;99.90;;;;;;5073675;28;20047;-64
2023/12/19 01:09:16;;;;;;;35.50;17.95;;;5.90;99.90;;;;;;5110468;28;20047;-64
2023/12/19 01:11:42;;;;;;;40.38;17.92;;;6.00;99.90;;;;;;5086358;28;20467;-64
2023/12/19 01:14:08;;;;;;;39.75;16.88;;;5.90;99.90;;;;;;5098758;28;20050;-64
2023/12/19 01:16:33;;;;;;;39.63;17.83;;;5.90;99.90;;;;;;5108394;28;20112;-64
2023/12/19 01:19:01;;;;;;;46.45;18.67;;;6.00;99.90;;;;;;5110797;28;20046;-65
2023/12/19 01:21:27;;;;;;;35.08;16.45;;;6.00;99.90;;;;;;5104963;27;20036;-64
2023/12/19 01:23:53;;;;;;;40.67;16.77;;;5.90;99.90;;;;;;5079128;28;20116;-63
2023/12/19 01:26:20;;;;;;;49.13;20.10;;;6.00;99.90;;;;;;5088957;28;20066;-64
2023/12/19 01:28:46;;;;;;;43.55;16.65;;;6.10;99.90;;;;;;5086651;28;20040;-64
2023/12/19 01:31:11;;;;;;;70.57;40.05;;;6.00;99.90;;;;;;5056896;28;20048;-64
2023/12/19 01:33:37;;;;;;;34.72;16.20;;;6.00;99.90;;;;;;5091232;28;20032;-64
2023/12/19 01:36:03;;;;;;;34.05;14.90;;;6.00;99.90;;;;;;5090687;28;20488;-64
2023/12/19 01:38:28;;;;;;;38.53;16.83;;;6.00;99.90;;;;;;5092650;28;20435;-64
2023/12/19 01:40:54;;;;;;;32.70;15.02;;;6.00;99.90;;;;;;5098249;28;20062;-64
2023/12/19 01:43:21;;;;;;;35.13;14.73;;;6.00;99.90;;;;;;5083641;28;20039;-64
2023/12/19 01:45:48;;;;;;;35.38;15.40;;;6.00;99.90;;;;;;5109852;28;20515;-64
2023/12/19 01:48:15;;;;;;;29.27;13.93;;;6.00;99.90;;;;;;5088762;28;20567;-64
2023/12/19 01:50:42;;;;;;;35.25;16.10;;;6.00;99.90;;;;;;5092354;28;20036;-64
2023/12/19 01:53:09;;;;;;;29.30;14.38;;;6.00;99.90;;;;;;5099555;28;20040;-64
2023/12/19 01:55:36;;;;;;;32.10;13.95;;;6.00;99.90;;;;;;5090666;28;20040;-64
2023/12/19 01:58:03;;;;;;;28.85;16.65;;;6.00;99.90;;;;;;5102023;28;20040;-64
2023/12/19 02:00:30;;;;;;;26.42;12.40;;;6.00;99.90;;;;;;5098920;28;20064;-64
2023/12/19 02:02:57;;;;;;;36.28;15.95;;;6.00;99.90;;;;;;5103357;28;20288;-64
2023/12/19 02:05:23;;;;;;;34.15;15.05;;;6.00;99.90;;;;;;5104720;28;20051;-64
2023/12/19 02:07:49;;;;;;;32.97;14.02;;;5.90;99.90;;;;;;5099819;28;20032;-65
2023/12/19 02:10:15;;;;;;;28.90;14.65;;;5.90;99.90;;;;;;5093147;28;20047;-64
2023/12/19 02:12:44;;;;;;;71.55;38.55;;;6.00;99.90;;;;;;5088580;28;20048;-64
2023/12/19 02:15:10;;;;;;;37.13;14.30;;;5.90;99.90;;;;;;5092991;28;20040;-64
2023/12/19 02:17:36;;;;;;;31.92;15.23;;;5.90;99.90;;;;;;5091575;28;20055;-64
2023/12/19 02:20:02;;;;;;;31.83;15.43;;;5.90;99.90;;;;;;5090192;28;20040;-64
2023/12/19 02:22:30;;;;;;;29.23;12.75;;;6.00;99.90;;;;;;5089237;28;20036;-65
2023/12/19 02:24:57;;;;;;;29.20;13.35;;;6.00;99.90;;;;;;5092924;28;20048;-64
2023/12/19 02:27:25;;;;;;;67.97;38.08;;;6.00;99.90;;;;;;5095756;28;20047;-64
2023/12/19 02:29:51;;;;;;;27.80;12.68;;;6.00;99.90;;;;;;5091901;28;20055;-64
2023/12/19 02:32:17;;;;;;;37.28;15.45;;;6.00;99.90;;;;;;5098273;28;20052;-64
2023/12/19 02:34:42;;;;;;;31.23;14.60;;;5.90;99.90;;;;;;5097687;28;20426;-64
2023/12/19 02:37:08;;;;;;;34.28;14.85;;;6.00;99.90;;;;;;5104795;28;20055;-64
2023/12/19 02:39:34;;;;;;;35.22;14.32;;;6.00;99.90;;;;;;5095637;28;20039;-64
2023/12/19 02:42:00;;;;;;;28.17;12.93;;;5.90;99.90;;;;;;5092349;28;20497;-64
2023/12/19 02:44:25;;;;;;;30.05;13.65;;;6.00;99.90;;;;;;5099176;28;20043;-64
2023/12/19 02:46:51;;;;;;;32.33;16.20;;;6.00;99.90;;;;;;5106616;28;20043;-64
2023/12/19 02:49:17;;;;;;;27.92;13.15;;;6.00;99.90;;;;;;5089641;28;20044;-64
2023/12/19 02:51:43;;;;;;;27.67;12.63;;;6.00;99.90;;;;;;5108974;28;20175;-64
2023/12/19 02:54:09;;;;;;;28.40;12.75;;;6.00;99.90;;;;;;5091061;28;20173;-64
2023/12/19 02:56:35;;;;;;;19.17;10.65;;;6.00;99.90;;;;;;5110743;28;20083;-64
2023/12/19 02:59:03;;;;;;;30.27;12.85;;;5.90;99.90;;;;;;5093015;28;20050;-64
2023/12/19 03:01:29;;;;;;;21.73;10.60;;;6.00;99.90;;;;;;5100138;28;20128;-65
2023/12/19 03:03:54;;;;;;;31.70;14.10;;;6.00;99.90;;;;;;5092134;28;20082;-64
2023/12/19 03:06:20;;;;;;;27.88;13.05;;;6.00;99.90;;;;;;5106560;28;20032;-65
2023/12/19 03:08:47;;;;;;;24.95;11.85;;;6.00;99.90;;;;;;5101461;28;20426;-64
2023/12/19 03:11:14;;;;;;;28.27;12.18;;;6.10;99.90;;;;;;5103646;28;20032;-64
2023/12/19 03:13:40;;;;;;;21.40;10.88;;;6.00;99.90;;;;;;5101361;28;20043;-64
2023/12/19 03:16:06;;;;;;;24.05;10.98;;;6.00;99.90;;;;;;5100378;28;20050;-64
2023/12/19 03:18:32;;;;;;;25.33;12.30;;;6.00;99.90;;;;;;5104193;28;20115;-64
2023/12/19 03:20:57;;;;;;;23.73;11.57;;;6.10;99.90;;;;;;5099633;28;20197;-65
2023/12/19 03:23:24;;;;;;;14.88;8.43;;;6.00;99.90;;;;;;5106925;27;20108;-65
2023/12/19 03:25:49;;;;;;;18.73;9.27;;;6.10;99.90;;;;;;5098839;28;20110;-64
2023/12/19 03:28:16;;;;;;;22.50;11.38;;;6.00;99.90;;;;;;5068855;28;20123;-64
2023/12/19 03:30:42;;;;;;;19.10;9.45;;;6.10;99.90;;;;;;5095302;28;20071;-64
2023/12/19 03:33:08;;;;;;;16.95;8.63;;;6.00;99.90;;;;;;5083460;28;20648;-64
2023/12/19 03:35:34;;;;;;;17.80;9.10;;;6.10;99.90;;;;;;5112185;27;20544;-64
2023/12/19 03:38:00;;;;;;;17.50;9.48;;;6.00;99.90;;;;;;5104805;28;21566;-65
2023/12/19 03:40:26;;;;;;;13.00;9.18;;;6.10;99.90;;;;;;5094834;28;20093;-64
2023/12/19 03:42:52;;;;;;;21.08;9.27;;;6.00;99.90;;;;;;5098181;28;20055;-64
2023/12/19 03:45:18;;;;;;;16.48;8.98;;;6.10;99.90;;;;;;5095667;28;20046;-64
2023/12/19 03:47:44;;;;;;;17.13;9.07;;;6.10;99.90;;;;;;5104929;28;20097;-64
2023/12/19 03:50:10;;;;;;;17.27;10.00;;;6.10;99.90;;;;;;5103911;28;20043;-65
2023/12/19 03:52:36;;;;;;;20.20;10.13;;;6.10;99.90;;;;;;5095271;28;20507;-65
2023/12/19 03:55:03;;;;;;;19.08;9.57;;;6.10;99.90;;;;;;5098768;28;20036;-64
2023/12/19 03:57:29;;;;;;;23.08;11.27;;;6.10;99.90;;;;;;5097112;28;20044;-64
2023/12/19 03:59:54;;;;;;;18.95;9.82;;;6.10;99.90;;;;;;5108235;28;20047;-65
2023/12/19 04:02:20;;;;;;;16.05;9.35;;;6.10;99.90;;;;;;5094714;28;20032;-64
2023/12/19 04:04:46;;;;;;;21.42;10.15;;;6.10;99.90;;;;;;5094960;28;20027;-64
2023/12/19 04:07:12;;;;;;;22.27;10.00;;;6.10;99.90;;;;;;5098264;28;20036;-64
2023/12/19 04:09:38;;;;;;;24.33;10.93;;;6.10;99.90;;;;;;5101185;28;20040;-64
2023/12/19 04:12:04;;;;;;;23.88;11.32;;;6.10;99.90;;;;;;5098965;28;20152;-65
2023/12/19 04:14:31;;;;;;;23.42;11.25;;;6.10;99.90;;;;;;5098304;28;20130;-64
2023/12/19 04:16:56;;;;;;;20.25;9.65;;;6.10;99.90;;;;;;5097440;28;20055;-64
2023/12/19 04:19:22;;;;;;;23.17;11.85;;;6.10;99.90;;;;;;5112704;28;20115;-64
2023/12/19 04:21:49;;;;;;;24.75;10.90;;;6.10;99.90;;;;;;5094712;28;20503;-65
2023/12/19 04:24:15;;;;;;;24.25;11.80;;;6.10;99.90;;;;;;5067582;28;20842;-64
2023/12/19 04:26:42;;;;;;;24.42;12.18;;;6.10;99.90;;;;;;5083359;28;20271;-64
2023/12/19 04:29:08;;;;;;;24.98;12.43;;;6.10;99.90;;;;;;5092274;28;20493;-65
2023/12/19 04:31:34;;;;;;;21.00;11.15;;;6.20;99.90;;;;;;5101365;28;20114;-64
2023/12/19 04:34:01;;;;;;;27.13;12.05;;;6.10;99.90;;;;;;5101303;28;20040;-64
2023/12/19 04:36:29;;;;;;;22.83;11.27;;;6.10;99.90;;;;;;5081878;28;20055;-64
2023/12/19 04:38:55;;;;;;;19.00;10.55;;;6.10;99.90;;;;;;5087350;28;20040;-65
2023/12/19 04:41:21;;;;;;;21.67;10.77;;;6.10;99.90;;;;;;5105206;28;20051;-64
2023/12/19 04:43:47;;;;;;;23.48;11.05;;;6.10;99.90;;;;;;5105248;28;20152;-64
2023/12/19 04:46:12;;;;;;;24.30;10.50;;;6.10;99.90;;;;;;5106235;28;20074;-64
2023/12/19 04:48:40;;;;;;;19.30;8.57;;;6.10;99.90;;;;;;5091022;28;20075;-64
2023/12/19 04:51:05;;;;;;;19.75;9.00;;;6.10;99.90;;;;;;5089138;28;20150;-64
2023/12/19 04:53:31;;;;;;;21.77;10.00;;;6.10;99.90;;;;;;5101927;28;20122;-64
2023/12/19 04:55:57;;;;;;;21.63;10.18;;;6.10;99.90;;;;;;5067144;28;20079;-65
2023/12/19 04:58:22;;;;;;;13.82;8.68;;;6.10;99.90;;;;;;5085847;28;20116;-65
2023/12/19 05:00:51;;;;;;;18.88;8.82;;;6.10;99.90;;;;;;5092294;28;20097;-64
2023/12/19 05:03:17;;;;;;;19.65;9.85;;;6.10;99.90;;;;;;5104512;28;20203;-64
2023/12/19 05:05:43;;;;;;;14.63;8.07;;;6.10;99.90;;;;;;5093285;28;20039;-64
2023/12/19 05:08:10;;;;;;;16.58;9.05;;;6.10;99.90;;;;;;5097802;28;20062;-64
2023/12/19 05:10:36;;;;;;;21.58;8.80;;;6.10;99.90;;;;;;5096078;28;20051;-64
2023/12/19 05:13:03;;;;;;;32.65;19.80;;;6.10;99.90;;;;;;5099269;28;20043;-64
2023/12/19 05:15:29;;;;;;;14.52;7.85;;;6.10;99.90;;;;;;5098519;28;20070;-64
2023/12/19 05:17:54;;;;;;;19.90;8.55;;;6.10;99.90;;;;;;5092754;28;20070;-64
2023/12/19 05:20:21;;;;;;;16.73;8.32;;;6.10;99.90;;;;;;5105931;28;20035;-64
2023/12/19 05:22:47;;;;;;;16.30;8.40;;;6.20;99.90;;;;;;5101002;28;20035;-64
2023/12/19 05:25:13;;;;;;;12.43;6.57;;;6.20;99.90;;;;;;5080251;28;20038;-64
2023/12/19 05:27:43;;;;;;;16.80;8.38;;;6.20;99.90;;;;;;5096462;28;20051;-64
2023/12/19 05:30:10;;;;;;;18.90;8.27;;;6.20;99.90;;;;;;5092655;28;20496;-64
2023/12/19 05:32:36;;;;;;;15.20;7.72;;;6.20;99.90;;;;;;5098121;28;20050;-64
2023/12/19 05:35:02;;;;;;;19.33;9.48;;;6.20;99.90;;;;;;5113352;28;20492;-64
2023/12/19 05:37:27;;;;;;;20.23;8.18;;;6.30;99.90;;;;;;5098663;28;20047;-64
2023/12/19 05:39:55;;;;;;;15.75;8.10;;;6.30;99.90;;;;;;5095810;28;20028;-64
2023/12/19 05:42:20;;;;;;;21.30;8.23;;;6.20;99.90;;;;;;5092721;28;20098;-64
2023/12/19 05:44:46;;;;;;;19.70;9.07;;;6.30;99.90;;;;;;5113456;28;20040;-65
2023/12/19 05:47:12;;;;;;;18.60;8.85;;;6.30;99.90;;;;;;5103565;27;20032;-65
2023/12/19 05:49:37;;;;;;;18.50;8.30;;;6.30;99.90;;;;;;5075882;28;20040;-65
2023/12/19 05:52:03;;;;;;;16.10;8.68;;;6.30;99.90;;;;;;5094332;28;20047;-65
2023/12/19 05:54:29;;;;;;;14.82;7.93;;;6.30;99.90;;;;;;5091352;28;20488;-65
2023/12/19 05:56:55;;;;;;;15.73;7.82;;;6.30;99.90;;;;;;5076455;28;20073;-65
2023/12/19 05:59:21;;;;;;;11.55;6.90;;;6.30;99.90;;;;;;5092816;28;20032;-64
2023/12/19 06:01:46;;;;;;;14.65;7.13;;;6.30;99.90;;;;;;5094450;28;20496;-65
2023/12/19 06:04:12;;;;;;;15.02;8.18;;;6.30;99.90;;;;;;5106742;28;20036;-64
2023/12/19 06:06:42;;;;;;;13.38;7.43;;;6.30;99.90;;;;;;5091190;28;20037;-64
2023/12/19 06:09:11;;;;;;;14.05;6.90;;;6.40;99.90;;;;;;5096615;28;20040;-64
2023/12/19 06:11:37;;;;;;;12.55;6.97;;;6.40;99.90;;;;;;5104150;28;20052;-65
2023/12/19 06:14:04;;;;;;;12.20;6.43;;;6.30;99.90;;;;;;5092361;28;20039;-65
2023/12/19 06:16:30;;;;;;;22.60;16.15;;;6.40;99.90;;;;;;5090904;28;20062;-64
2023/12/19 06:18:55;;;;;;;26.27;18.60;;;6.30;99.90;;;;;;5101408;28;20062;-65
2023/12/19 06:21:21;;;;;;;26.73;18.55;;;6.40;99.90;;;;;;5103474;28;20149;-65
2023/12/19 06:23:47;;;;;;;14.68;6.75;;;6.40;99.90;;;;;;5102929;28;20043;-65
2023/12/19 06:26:12;;;;;;;20.67;15.65;;;6.40;99.90;;;;;;5100056;28;20123;-65
